createdAt,value
2017-10-25T00:00:23.315Z,28.03
2017-10-25T00:02:50.227Z,27.43
2017-10-25T00:05:17.177Z,28.97
2017-10-25T00:07:43.344Z,26.10
2017-10-25T00:10:10.292Z,24.83
2017-10-25T00:12:37.175Z,28.60
2017-10-25T00:15:03.364Z,25.80
2017-10-25T00:17:30.279Z,20.97
2017-10-25T00:19:56.432Z,27.27
2017-10-25T00:22:23.319Z,26.87
2017-10-25T00:24:49.757Z,24.93
2017-10-25T00:27:15.911Z,22.43
2017-10-25T00:29:42.059Z,21.90
2017-10-25T00:32:09.010Z,25.90
2017-10-25T00:34:35.198Z,26.67
2017-10-25T00:37:01.396Z,25.17
2017-10-25T00:39:27.559Z,25.80
2017-10-25T00:41:53.712Z,24.00
2017-10-25T00:44:20.645Z,26.37
2017-10-25T00:46:47.580Z,24.40
2017-10-25T00:49:13.755Z,24.73
2017-10-25T00:51:39.932Z,27.73
2017-10-25T00:54:06.138Z,20.47
2017-10-25T00:56:32.331Z,24.73
2017-10-25T00:58:58.540Z,24.63
2017-10-25T01:01:25.455Z,23.20
2017-10-25T01:03:51.640Z,25.40
2017-10-25T01:06:17.847Z,23.30
2017-10-25T01:08:44.024Z,23.43
2017-10-25T01:11:10.263Z,21.57
2017-10-25T01:13:36.455Z,25.70
2017-10-25T01:16:02.631Z,25.53
2017-10-25T01:18:29.663Z,25.90
2017-10-25T01:20:56.115Z,21.57
2017-10-25T01:23:22.490Z,26.37
2017-10-25T01:25:48.809Z,24.87
2017-10-25T01:28:15.169Z,24.20
2017-10-25T01:30:41.485Z,26.47
2017-10-25T01:33:07.839Z,26.93
2017-10-25T01:35:34.160Z,22.87
2017-10-25T01:38:00.512Z,23.80
2017-10-25T01:40:26.947Z,27.37
2017-10-25T01:42:53.279Z,24.00
2017-10-25T01:45:19.604Z,21.07
2017-10-25T01:47:45.960Z,25.20
2017-10-25T01:50:13.029Z,24.33
2017-10-25T01:52:39.317Z,23.97
2017-10-25T01:55:06.467Z,24.27
2017-10-25T01:57:32.836Z,26.27
2017-10-25T01:59:59.148Z,26.27
2017-10-25T02:02:26.832Z,17.70
2017-10-25T02:04:53.145Z,23.27
2017-10-25T02:07:19.465Z,28.97
2017-10-25T02:09:46.540Z,26.60
2017-10-25T02:12:12.868Z,26.13
2017-10-25T02:14:39.180Z,26.33
2017-10-25T02:17:06.245Z,20.00
2017-10-25T02:19:32.555Z,25.80
2017-10-25T02:21:59.630Z,27.63
2017-10-25T02:24:25.936Z,26.20
2017-10-25T02:26:53.028Z,26.30
2017-10-25T02:29:19.226Z,26.87
2017-10-25T02:31:45.393Z,28.20
2017-10-25T02:34:11.608Z,21.33
2017-10-25T02:36:37.779Z,25.93
2017-10-25T02:39:04.693Z,27.93
2017-10-25T02:41:30.870Z,23.90
2017-10-25T02:43:57.067Z,27.10
2017-10-25T02:46:23.244Z,26.57
2017-10-25T02:48:49.410Z,29.10
2017-10-25T02:51:15.585Z,28.50
2017-10-25T02:53:41.787Z,30.83
2017-10-25T02:56:08.174Z,29.33
2017-10-25T02:58:34.349Z,25.00
2017-10-25T03:01:01.280Z,29.17
2017-10-25T03:03:28.208Z,23.47
2017-10-25T03:05:54.375Z,25.97
2017-10-25T03:08:20.669Z,29.33
2017-10-25T03:10:46.868Z,26.00
2017-10-25T03:13:13.035Z,24.07
2017-10-25T03:15:39.971Z,23.47
2017-10-25T03:18:06.167Z,23.70
2017-10-25T03:20:32.572Z,25.00
2017-10-25T03:22:58.771Z,25.83
2017-10-25T03:25:25.681Z,21.30
2017-10-25T03:27:51.900Z,15.93
2017-10-25T03:30:18.067Z,26.03
2017-10-25T03:32:44.981Z,25.83
2017-10-25T03:35:11.297Z,24.90
2017-10-25T03:37:37.459Z,22.60
2017-10-25T03:40:03.636Z,24.20
2017-10-25T03:42:29.810Z,22.87
2017-10-25T03:44:55.977Z,24.97
2017-10-25T03:47:22.274Z,21.87
2017-10-25T03:49:49.190Z,20.70
2017-10-25T03:52:15.365Z,23.90
2017-10-25T03:54:41.573Z,21.17
2017-10-25T03:57:08.479Z,22.97
2017-10-25T03:59:34.651Z,22.17
2017-10-25T04:02:01.586Z,21.83
2017-10-25T04:04:28.499Z,21.30
2017-10-25T04:06:54.653Z,13.37
2017-10-25T04:09:20.828Z,18.43
2017-10-25T04:11:46.993Z,16.37
2017-10-25T04:14:13.156Z,18.13
2017-10-25T04:16:40.244Z,13.30
2017-10-25T04:19:06.409Z,11.37
2017-10-25T04:21:33.327Z,12.53
2017-10-25T04:23:59.503Z,12.33
2017-10-25T04:26:26.415Z,10.33
2017-10-25T04:28:52.571Z,10.27
2017-10-25T04:31:19.530Z,14.03
2017-10-25T04:33:45.706Z,9.70
2017-10-25T04:36:12.206Z,9.97
2017-10-25T04:38:38.420Z,11.03
2017-10-25T04:41:04.577Z,10.87
2017-10-25T04:43:30.752Z,12.70
2017-10-25T04:45:57.788Z,6.13
2017-10-25T04:48:24.702Z,8.37
2017-10-25T04:50:50.890Z,11.67
2017-10-25T04:53:17.085Z,10.07
2017-10-25T04:55:44.001Z,11.67
2017-10-25T04:58:10.197Z,9.27
2017-10-25T05:00:36.362Z,9.97
2017-10-25T05:03:02.531Z,10.43
2017-10-25T05:05:28.736Z,11.40
2017-10-25T05:07:55.646Z,12.23
2017-10-25T05:10:22.569Z,12.73
2017-10-25T05:12:48.773Z,11.00
2017-10-25T05:15:14.949Z,11.70
2017-10-25T05:17:41.113Z,14.20
2017-10-25T05:20:08.030Z,13.27
2017-10-25T05:22:34.216Z,10.40
2017-10-25T05:25:00.401Z,13.50
2017-10-25T05:27:27.357Z,12.10
2017-10-25T05:29:54.308Z,10.70
2017-10-25T05:32:21.238Z,13.17
2017-10-25T05:34:48.188Z,14.47
2017-10-25T05:37:15.599Z,12.40
2017-10-25T05:39:41.939Z,9.27
2017-10-25T05:42:08.124Z,18.83
2017-10-25T05:44:34.337Z,14.57
2017-10-25T05:47:01.272Z,16.80
2017-10-25T05:49:27.479Z,13.87
2017-10-25T05:51:53.691Z,14.90
2017-10-25T05:54:19.871Z,17.13
2017-10-25T05:56:46.316Z,14.40
2017-10-25T05:59:12.492Z,12.43
2017-10-25T06:01:38.678Z,11.57
2017-10-25T06:04:04.882Z,13.63
2017-10-25T06:06:31.799Z,12.63
2017-10-25T06:08:57.952Z,10.13
2017-10-25T06:11:25.044Z,10.50
2017-10-25T06:13:51.205Z,12.93
2017-10-25T06:16:18.120Z,11.03
2017-10-25T06:18:44.292Z,11.00
2017-10-25T06:21:11.202Z,11.50
2017-10-25T06:23:37.493Z,8.60
2017-10-25T06:26:03.669Z,11.00
2017-10-25T06:28:29.848Z,10.63
2017-10-25T06:30:56.056Z,11.60
2017-10-25T06:33:22.307Z,10.10
2017-10-25T06:35:48.481Z,8.20
2017-10-25T06:38:14.730Z,6.53
2017-10-25T06:40:41.664Z,9.67
2017-10-25T06:43:08.601Z,8.60
2017-10-25T06:45:34.840Z,6.03
2017-10-25T06:48:01.791Z,8.67
2017-10-25T06:50:28.726Z,9.67
2017-10-25T06:52:55.968Z,11.77
2017-10-25T06:55:22.148Z,10.40
2017-10-25T06:57:48.312Z,10.50
2017-10-25T07:00:14.520Z,10.67
2017-10-25T07:02:40.678Z,10.93
2017-10-25T07:05:07.584Z,11.93
2017-10-25T07:07:33.764Z,12.07
2017-10-25T07:10:00.672Z,11.93
2017-10-25T07:12:26.845Z,12.60
2017-10-25T07:14:53.063Z,11.90
2017-10-25T07:17:19.991Z,11.07
2017-10-25T07:19:46.152Z,11.70
2017-10-25T07:22:12.431Z,12.07
2017-10-25T07:24:38.594Z,9.73
2017-10-25T07:27:04.781Z,10.23
2017-10-25T07:29:30.983Z,11.10
2017-10-25T07:31:57.172Z,11.20
2017-10-25T07:34:24.086Z,11.20
2017-10-25T07:36:50.497Z,13.97
2017-10-25T07:39:16.700Z,8.70
2017-10-25T07:41:43.193Z,9.73
2017-10-25T07:44:10.160Z,11.70
2017-10-25T07:46:36.324Z,12.10
2017-10-25T07:49:02.508Z,9.63
2017-10-25T07:51:29.431Z,10.47
2017-10-25T07:53:56.701Z,10.13
2017-10-25T07:56:22.896Z,13.20
2017-10-25T07:58:49.080Z,11.03
2017-10-25T08:10:37.377Z,12.73
2017-10-25T08:13:03.825Z,11.93
2017-10-25T08:15:29.994Z,20.63
2017-10-25T08:17:56.190Z,9.93
2017-10-25T08:20:22.530Z,15.00
2017-10-25T08:22:48.742Z,14.47
2017-10-25T08:25:14.927Z,11.30
2017-10-25T08:27:41.864Z,14.80
2017-10-25T08:30:08.805Z,11.53
2017-10-25T08:32:35.827Z,12.37
2017-10-25T08:35:02.080Z,14.03
2017-10-25T08:37:28.999Z,8.73
2017-10-25T08:39:55.248Z,8.43
2017-10-25T08:42:22.224Z,9.97
2017-10-25T08:44:48.421Z,11.80
2017-10-25T08:47:15.350Z,9.17
2017-10-25T08:49:43.025Z,10.10
2017-10-25T08:52:09.696Z,10.50
2017-10-25T08:54:35.901Z,10.93
2017-10-25T08:57:02.840Z,7.53
2017-10-25T08:59:29.487Z,7.77
2017-10-25T09:01:55.708Z,6.17
2017-10-25T09:04:22.680Z,12.03
2017-10-25T09:06:49.392Z,6.87
2017-10-25T09:09:16.363Z,6.13
2017-10-25T09:11:42.570Z,6.80
2017-10-25T09:14:09.656Z,10.03
2017-10-25T09:16:35.844Z,4.60
2017-10-25T09:19:02.760Z,6.50
2017-10-25T09:21:29.039Z,7.97
2017-10-25T09:23:55.215Z,6.60
2017-10-25T09:26:21.710Z,5.53
2017-10-25T09:28:47.885Z,4.60
2017-10-25T09:31:14.062Z,5.20
2017-10-25T09:33:40.623Z,4.17
2017-10-25T09:36:06.789Z,4.07
2017-10-25T09:38:33.005Z,4.90
2017-10-25T09:40:59.190Z,4.03
2017-10-25T09:43:25.377Z,3.77
2017-10-25T09:45:52.293Z,3.03
2017-10-25T09:48:18.492Z,4.40
2017-10-25T09:50:44.666Z,4.00
2017-10-25T09:53:10.827Z,3.30
2017-10-25T09:55:37.037Z,4.20
2017-10-25T09:58:03.947Z,3.30
2017-10-25T10:00:30.112Z,4.33
2017-10-25T10:02:57.305Z,3.30
2017-10-25T10:05:23.482Z,4.47
2017-10-25T10:07:50.389Z,4.40
2017-10-25T10:10:16.885Z,3.87
2017-10-25T10:12:43.056Z,3.73
2017-10-25T10:15:09.244Z,3.33
2017-10-25T10:17:35.476Z,4.90
2017-10-25T10:20:01.704Z,3.53
2017-10-25T10:22:27.895Z,4.80
2017-10-25T10:24:54.845Z,4.40
2017-10-25T10:27:21.773Z,4.10
2017-10-25T10:29:48.048Z,4.40
2017-10-25T10:32:14.294Z,3.23
2017-10-25T10:34:40.468Z,4.07
2017-10-25T10:37:07.392Z,3.57
2017-10-25T10:39:34.489Z,5.07
2017-10-25T10:42:00.681Z,5.03
2017-10-25T10:44:27.788Z,4.00
2017-10-25T10:46:54.027Z,11.23
2017-10-25T10:49:20.226Z,4.40
2017-10-25T10:51:46.381Z,8.43
2017-10-25T10:54:12.981Z,4.70
2017-10-25T10:56:39.158Z,4.10
2017-10-25T10:59:05.335Z,4.83
2017-10-25T11:01:31.565Z,3.33
2017-10-25T11:03:57.757Z,5.00
2017-10-25T11:06:24.703Z,3.57
2017-10-25T11:08:51.696Z,3.40
2017-10-25T11:11:17.903Z,4.67
2017-10-25T11:13:44.089Z,5.87
2017-10-25T11:16:10.568Z,4.73
2017-10-25T11:18:36.752Z,4.83
2017-10-25T11:21:02.948Z,7.10
2017-10-25T11:23:29.152Z,5.57
2017-10-25T11:25:55.314Z,5.80
2017-10-25T11:28:21.540Z,5.80
2017-10-25T11:30:47.784Z,4.70
2017-10-25T11:33:14.000Z,5.10
2017-10-25T11:35:40.201Z,6.13
2017-10-25T11:38:06.434Z,5.47
2017-10-25T11:40:32.638Z,4.80
2017-10-25T11:42:58.831Z,6.10
2017-10-25T11:45:25.050Z,6.80
2017-10-25T11:47:51.222Z,6.43
2017-10-25T11:50:17.465Z,7.00
2017-10-25T11:52:43.641Z,8.33
2017-10-25T11:55:09.820Z,6.60
2017-10-25T11:57:36.114Z,8.40
2017-10-25T12:00:03.048Z,7.13
2017-10-25T12:02:29.985Z,9.43
2017-10-25T12:04:56.204Z,9.87
2017-10-25T12:07:22.408Z,6.47
2017-10-25T12:09:49.658Z,10.00
2017-10-25T12:12:16.062Z,6.70
2017-10-25T12:14:42.229Z,11.03
2017-10-25T12:17:08.401Z,8.67
2017-10-25T12:19:35.364Z,9.00
2017-10-25T12:22:01.636Z,5.00
2017-10-25T12:24:27.832Z,7.90
2017-10-25T12:26:54.029Z,5.47
2017-10-25T12:29:20.939Z,14.13
2017-10-25T12:31:47.126Z,7.77
2017-10-25T12:34:13.356Z,17.30
2017-10-25T12:36:39.518Z,16.00
2017-10-25T12:39:05.686Z,17.67
2017-10-25T12:41:31.908Z,9.23
2017-10-25T12:43:58.836Z,11.03
2017-10-25T12:46:25.785Z,11.60
2017-10-25T12:48:52.743Z,8.17
2017-10-25T12:51:19.665Z,9.73
2017-10-25T12:53:46.588Z,8.33
2017-10-25T12:56:12.803Z,15.60
2017-10-25T12:58:39.016Z,13.07
2017-10-25T13:01:05.199Z,20.53
2017-10-25T13:03:32.133Z,16.97
2017-10-25T13:05:58.315Z,4.80
2017-10-25T13:08:24.490Z,10.23
2017-10-25T13:11:11.859Z,19.87
2017-10-25T13:13:52.091Z,7.67
2017-10-25T13:16:37.986Z,13.30
2017-10-25T13:19:04.246Z,9.57
2017-10-25T13:21:30.408Z,6.43
2017-10-25T13:23:56.568Z,7.27
2017-10-25T13:26:22.766Z,6.53
2017-10-25T13:28:48.954Z,6.00
2017-10-25T13:31:15.141Z,4.40
2017-10-25T13:33:42.305Z,6.10
2017-10-25T13:36:08.472Z,6.73
2017-10-25T13:38:35.378Z,3.23
2017-10-25T13:41:01.677Z,2.70
2017-10-25T13:43:28.589Z,2.13
2017-10-25T13:45:54.775Z,1.50
2017-10-25T13:48:21.218Z,2.73
2017-10-25T13:50:47.399Z,8.20
2017-10-25T13:53:13.582Z,3.03
2017-10-25T13:55:39.833Z,3.70
2017-10-25T13:58:06.010Z,3.43
2017-10-25T14:00:32.249Z,2.77
2017-10-25T14:02:58.792Z,1.60
2017-10-25T14:05:24.988Z,2.40
2017-10-25T14:07:51.893Z,2.30
2017-10-25T14:10:18.106Z,2.37
2017-10-25T14:12:44.292Z,2.23
2017-10-25T14:15:11.192Z,1.80
2017-10-25T14:17:37.473Z,2.77
2017-10-25T14:20:03.674Z,1.67
2017-10-25T14:22:30.591Z,2.60
2017-10-25T14:24:56.779Z,0.93
2017-10-25T14:27:41.424Z,3.50
2017-10-25T14:30:08.397Z,1.70
2017-10-25T14:32:34.575Z,2.00
2017-10-25T14:35:00.769Z,2.27
2017-10-25T14:37:26.966Z,1.00
2017-10-25T14:39:53.146Z,1.60
2017-10-25T14:42:19.318Z,1.47
2017-10-25T14:44:45.512Z,0.90
2017-10-25T14:47:12.740Z,1.80
2017-10-25T14:49:39.161Z,7.63
2017-10-25T14:52:05.365Z,6.70
2017-10-25T14:54:31.966Z,5.90
2017-10-25T14:56:59.125Z,1.40
2017-10-25T14:59:25.408Z,4.57
2017-10-25T15:01:51.598Z,1.30
2017-10-25T15:04:17.768Z,1.20
2017-10-25T15:06:43.960Z,1.20
2017-10-25T15:09:10.150Z,1.47
2017-10-25T15:11:37.074Z,1.80
2017-10-25T15:14:03.661Z,1.30
2017-10-25T15:16:29.833Z,1.63
2017-10-25T15:18:56.015Z,1.87
2017-10-25T15:21:22.550Z,1.40
2017-10-25T15:23:48.720Z,2.03
2017-10-25T15:26:14.903Z,1.73
2017-10-25T15:28:41.096Z,1.13
2017-10-25T15:31:08.051Z,2.87
2017-10-25T15:33:34.971Z,1.10
2017-10-25T15:36:01.165Z,1.80
2017-10-25T15:38:27.333Z,1.53
2017-10-25T15:40:53.516Z,3.80
2017-10-25T15:43:19.926Z,3.00
2017-10-25T15:45:46.110Z,1.30
2017-10-25T15:48:12.307Z,1.40
2017-10-25T15:50:38.549Z,2.00
2017-10-25T15:53:04.704Z,2.60
2017-10-25T15:55:30.893Z,2.23
2017-10-25T15:57:57.080Z,2.00
2017-10-25T16:00:24.006Z,2.50
2017-10-25T16:02:50.922Z,5.93
2017-10-25T16:05:17.156Z,1.23
2017-10-25T16:07:43.327Z,7.63
2017-10-25T16:10:09.496Z,14.57
2017-10-25T16:12:35.799Z,1.50
2017-10-25T16:15:01.980Z,1.63
2017-10-25T16:17:28.449Z,9.33
2017-10-25T16:19:54.808Z,1.93
2017-10-25T16:22:20.981Z,2.23
2017-10-25T16:24:47.913Z,1.70
2017-10-25T16:27:14.101Z,6.30
2017-10-25T16:29:40.310Z,12.93
2017-10-25T16:32:06.500Z,2.50
2017-10-25T16:34:32.690Z,2.20
2017-10-25T16:36:58.864Z,19.90
2017-10-25T16:39:25.805Z,1.50
2017-10-25T16:41:52.721Z,2.47
2017-10-25T16:44:18.903Z,1.77
2017-10-25T16:46:45.116Z,29.23
2017-10-25T16:49:12.040Z,37.73
2017-10-25T16:51:38.257Z,2.30
2017-10-25T16:54:04.492Z,4.20
2017-10-25T16:56:30.678Z,4.53
2017-10-25T16:58:56.863Z,2.07
2017-10-25T17:01:23.786Z,1.77
2017-10-25T17:03:49.996Z,2.13
2017-10-25T17:06:16.929Z,1.97
2017-10-25T17:08:43.121Z,1.83
2017-10-25T17:11:09.469Z,1.93
2017-10-25T17:13:35.653Z,1.83
2017-10-25T17:16:01.883Z,2.63
2017-10-25T17:18:28.842Z,1.80
2017-10-25T17:20:55.756Z,55.77
2017-10-25T17:23:21.964Z,7.00
2017-10-25T17:25:48.137Z,6.53
2017-10-25T17:28:15.045Z,4.40
2017-10-25T17:30:41.279Z,15.27
2017-10-25T17:33:07.480Z,2.50
2017-10-25T17:35:33.666Z,1.73
2017-10-25T17:38:00.593Z,3.10
2017-10-25T17:40:26.767Z,9.37
2017-10-25T17:42:52.935Z,1.93
2017-10-25T17:45:19.174Z,19.10
2017-10-25T17:47:45.353Z,2.60
2017-10-25T17:50:11.559Z,4.33
2017-10-25T17:52:38.103Z,3.20
2017-10-25T17:55:04.296Z,4.30
2017-10-25T17:57:31.270Z,3.00
2017-10-25T17:59:57.454Z,2.60
2017-10-25T18:02:23.624Z,3.10
2017-10-25T18:04:49.839Z,1.60
2017-10-25T18:07:16.035Z,1.80
2017-10-25T18:09:42.202Z,1.70
2017-10-25T18:12:08.403Z,2.50
2017-10-25T18:14:35.325Z,1.70
2017-10-25T18:17:01.816Z,1.67
2017-10-25T18:19:27.987Z,3.50
2017-10-25T18:21:54.158Z,2.53
2017-10-25T18:24:20.369Z,1.80
2017-10-25T18:26:47.748Z,2.87
2017-10-25T18:29:14.777Z,2.60
2017-10-25T18:31:41.768Z,1.57
2017-10-25T18:34:07.957Z,2.10
2017-10-25T18:36:34.508Z,2.73
2017-10-25T18:39:00.713Z,2.67
2017-10-25T18:41:27.664Z,2.43
2017-10-25T18:43:53.949Z,2.30
2017-10-25T18:46:20.196Z,2.80
2017-10-25T18:48:46.403Z,1.80
2017-10-25T18:51:12.641Z,2.37
2017-10-25T18:53:38.857Z,2.00
2017-10-25T18:56:05.107Z,2.07
2017-10-25T18:58:32.168Z,4.70
2017-10-25T19:00:59.113Z,4.60
2017-10-25T19:03:26.039Z,2.23
2017-10-25T19:05:52.518Z,1.97
2017-10-25T19:08:18.708Z,2.23
2017-10-25T19:10:44.951Z,1.73
2017-10-25T19:13:11.520Z,5.20
2017-10-25T19:15:37.705Z,1.80
2017-10-25T19:18:04.647Z,7.13
2017-10-25T19:20:31.616Z,10.10
2017-10-25T19:22:57.794Z,4.27
2017-10-25T19:25:24.009Z,7.67
2017-10-25T19:27:50.242Z,3.70
2017-10-25T19:30:16.454Z,2.67
2017-10-25T19:32:42.706Z,2.23
2017-10-25T19:35:08.909Z,2.70
2017-10-25T19:37:35.105Z,2.23
2017-10-25T19:40:01.409Z,2.43
2017-10-25T19:42:28.342Z,2.57
2017-10-25T19:44:54.558Z,2.47
2017-10-25T19:47:20.932Z,2.13
2017-10-25T19:49:47.868Z,2.90
2017-10-25T19:52:14.832Z,3.90
2017-10-25T19:54:41.442Z,4.43
2017-10-25T19:57:08.378Z,2.57
2017-10-25T19:59:34.579Z,3.27
2017-10-25T20:02:00.822Z,3.03
2017-10-25T20:04:27.005Z,2.87
2017-10-25T20:06:53.257Z,2.50
2017-10-25T20:09:19.457Z,2.30
2017-10-25T20:11:45.693Z,3.20
2017-10-25T20:14:12.133Z,2.23
2017-10-25T20:16:38.327Z,3.27
2017-10-25T20:19:04.855Z,2.80
2017-10-25T20:21:32.014Z,2.17
2017-10-25T20:23:58.248Z,2.63
2017-10-25T20:26:25.022Z,3.27
2017-10-25T20:28:51.343Z,6.80
2017-10-25T20:31:17.559Z,5.10
2017-10-25T20:33:44.034Z,2.40
2017-10-25T20:36:10.995Z,3.50
2017-10-25T20:38:37.239Z,2.73
2017-10-25T20:41:04.425Z,4.47
2017-10-25T20:43:30.601Z,4.60
2017-10-25T20:45:57.114Z,2.80
2017-10-25T20:48:23.398Z,3.10
2017-10-25T20:50:49.585Z,2.80
2017-10-25T20:53:15.822Z,2.83
2017-10-25T20:55:42.028Z,2.43
2017-10-25T20:58:08.253Z,3.73
2017-10-25T21:00:35.311Z,2.70
2017-10-25T21:03:01.484Z,2.60
2017-10-25T21:05:27.678Z,3.27
2017-10-25T21:07:53.897Z,2.50
2017-10-25T21:10:21.295Z,2.43
2017-10-25T21:12:48.361Z,3.97
2017-10-25T21:15:14.558Z,5.80
2017-10-25T21:17:41.935Z,3.90
2017-10-25T21:20:08.168Z,3.60
2017-10-25T21:22:34.378Z,8.40
2017-10-25T21:25:00.573Z,2.57
2017-10-25T21:27:26.785Z,2.53
2017-10-25T21:29:52.988Z,9.43
2017-10-25T21:32:19.170Z,4.87
2017-10-25T21:34:46.303Z,4.87
2017-10-25T21:37:12.636Z,3.50
2017-10-25T21:39:38.850Z,2.70
2017-10-25T21:42:05.787Z,7.27
2017-10-25T21:44:32.004Z,5.60
2017-10-25T21:46:58.333Z,3.50
2017-10-25T21:49:25.155Z,3.43
2017-10-25T21:51:52.713Z,3.37
2017-10-25T21:54:18.905Z,3.67
2017-10-25T21:56:46.069Z,6.33
2017-10-25T21:59:12.893Z,2.30
2017-10-25T22:01:39.209Z,5.33
2017-10-25T22:04:06.141Z,3.77
2017-10-25T22:06:32.580Z,4.10
2017-10-25T22:08:58.838Z,3.57
2017-10-25T22:11:25.762Z,3.73
2017-10-25T22:13:51.967Z,4.73
2017-10-25T22:16:18.352Z,2.80
2017-10-25T22:18:44.582Z,2.70
2017-10-25T22:21:10.935Z,5.57
2017-10-25T22:23:37.112Z,4.90
2017-10-25T22:26:03.341Z,3.70
2017-10-25T22:28:30.717Z,3.40
2017-10-25T22:30:58.154Z,4.07
2017-10-25T22:33:24.402Z,3.67
2017-10-25T22:35:50.698Z,4.50
2017-10-25T22:38:17.167Z,3.30
2017-10-25T22:40:43.358Z,3.50
2017-10-25T22:43:09.551Z,3.50
2017-10-25T22:45:35.745Z,3.53
2017-10-25T22:48:01.935Z,4.40
2017-10-25T22:50:28.107Z,3.50
2017-10-25T22:52:54.312Z,3.00
2017-10-25T22:55:21.225Z,3.63
2017-10-25T22:57:48.151Z,3.80
2017-10-25T23:00:14.361Z,6.50
2017-10-25T23:02:40.550Z,3.30
2017-10-25T23:05:07.485Z,4.73
2017-10-25T23:07:33.952Z,3.80
2017-10-25T23:10:00.148Z,3.50
2017-10-25T23:12:26.324Z,4.53
2017-10-25T23:14:52.860Z,4.60
2017-10-25T23:17:19.028Z,3.37
2017-10-25T23:19:45.253Z,3.57
2017-10-25T23:22:11.434Z,3.17
2017-10-25T23:24:37.613Z,3.60
2017-10-25T23:27:03.839Z,7.33
2017-10-25T23:29:30.017Z,4.70
2017-10-25T23:31:56.203Z,3.87
2017-10-25T23:34:22.676Z,5.17
2017-10-25T23:36:48.850Z,5.60
2017-10-25T23:39:15.025Z,4.37
2017-10-25T23:41:41.241Z,4.80
2017-10-25T23:44:08.165Z,6.63
2017-10-25T23:46:34.343Z,4.33
2017-10-25T23:49:01.476Z,5.10
2017-10-25T23:51:27.643Z,4.90
2017-10-25T23:53:53.897Z,3.03
2017-10-25T23:56:20.827Z,3.83
2017-10-25T23:58:47.020Z,4.80
